Wetterstation Tischlerei-Herzog
Wetterdaten: aktuell Donnerstag, 09.07.2020 22:39
Datum Zeit Temp. N Temp. S Temp. Htte Aussentemp. Temp. Bo Feuchte Htt Luftfeuchte Luftdruck Niederschl. Taupunkt empf. Temp.
09.07.2020 22:39 19,2 C 19,9 C 20,1 C 19,2 C 17,9 C 20 % 46 % 1009,7 hPa 0,0 l/m 7,3 C 19,2 C
09.07.2020 21:39 21,3 C 21,7 C 22,2 C 21,3 C 17,9 C 20 % 43 % 1008,3 hPa 0,0 l/m 8,2 C 21,3 C
09.07.2020 20:39 23,3 C 23,3 C 23,8 C 23,3 C 17,9 C 20 % 38 % 1008,0 hPa 0,0 l/m 8,2 C 23,3 C
09.07.2020 19:39 25,4 C 24,8 C 25,7 C 24,8 C 17,9 C 20 % 32 % 1007,8 hPa 0,0 l/m 7,0 C 24,8 C
09.07.2020 18:39 27,0 C 25,3 C 25,4 C 25,3 C 17,8 C 20 % 31 % 1007,8 hPa 0,0 l/m 6,9 C 25,3 C
09.07.2020 17:39 25,0 C 24,5 C 24,5 C 24,5 C 17,8 C 20 % 32 % 1008,9 hPa 0,0 l/m 6,7 C 24,5 C
09.07.2020 16:39 25,5 C 24,7 C 24,9 C 24,7 C 17,7 C 20 % 30 % 1008,9 hPa 0,0 l/m 6,0 C 24,7 C
09.07.2020 15:39 24,7 C 24,1 C 24,2 C 24,1 C 17,5 C 20 % 33 % 1010,0 hPa 0,0 l/m 6,8 C 24,1 C
09.07.2020 14:39 23,8 C 23,8 C 23,5 C 23,8 C 17,1 C 20 % 35 % 1010,1 hPa 0,0 l/m 7,4 C 23,8 C
09.07.2020 13:39 23,8 C 23,9 C 23,2 C 23,8 C 16,7 C 20 % 35 % 1010,1 hPa 0,0 l/m 7,4 C 23,8 C
09.07.2020 12:39 20,6 C 19,7 C 19,7 C 19,7 C 16,4 C 20 % 44 % 1010,7 hPa 0,0 l/m 7,1 C 19,7 C
09.07.2020 11:39 19,6 C 19,1 C 19,2 C 19,1 C 16,1 C 20 % 44 % 1010,7 hPa 0,3 l/m 6,6 C 19,1 C
09.07.2020 10:39 18,8 C 18,2 C 18,0 C 18,2 C 15,7 C 27 % 45 % 1011,9 hPa 0,0 l/m 6,1 C 18,2 C
09.07.2020 09:39 17,0 C 16,6 C 16,7 C 16,6 C 15,6 C 31 % 47 % 1012,2 hPa 0,3 l/m 5,2 C 16,6 C
09.07.2020 08:39 15,7 C 15,5 C 15,6 C 15,5 C 15,5 C 33 % 47 % 1012,3 hPa 0,0 l/m 4,2 C 15,5 C
09.07.2020 07:39 14,7 C 14,5 C 14,6 C 14,5 C 15,4 C 41 % 51 % 1012,5 hPa 0,0 l/m 4,5 C 14,5 C
09.07.2020 06:39 13,3 C 13,7 C 13,9 C 13,3 C 15,5 C 43 % 58 % 1012,7 hPa 0,3 l/m 5,2 C 13,3 C
09.07.2020 05:39 13,1 C 13,6 C 13,8 C 13,1 C 15,6 C 42 % 51 % 1013,7 hPa 0,0 l/m 3,2 C 13,1 C
09.07.2020 04:39 12,9 C 13,3 C 13,4 C 12,9 C 15,6 C 43 % 53 % 1013,8 hPa 0,0 l/m 3,6 C 12,9 C
09.07.2020 03:39 12,6 C 13,1 C 13,0 C 12,6 C 15,7 C 43 % 54 % 1013,8 hPa 0,0 l/m 3,5 C 12,6 C
09.07.2020 02:39 12,1 C 12,5 C 12,4 C 12,1 C 15,9 C 43 % 60 % 1013,9 hPa 0,0 l/m 4,6 C 12,1 C
09.07.2020 01:39 11,7 C 12,2 C 12,1 C 11,7 C 16,0 C 41 % 60 % 1015,0 hPa 0,0 l/m 4,2 C 11,7 C
09.07.2020 00:39 11,3 C 11,9 C 11,8 C 11,3 C 16,2 C 41 % 59 % 1015,1 hPa 0,0 l/m 3,6 C 11,3 C
08.07.2020 23:39 11,2 C 11,9 C 11,8 C 11,2 C 16,4 C 38 % 58 % 1015,1 hPa 0,0 l/m 3,2 C 11,2 C
08.07.2020 23:04 11,2 C 12,1 C 12,2 C 11,2 C 16,5 C 36 % 56 % 1015,1 hPa 0,0 l/m 2,8 C 11,2 C
_ Min-Zeit 23:04 23:24 00:29 23:04 06:34 11:04 17:54 18:39 - 23:04 23:04
Minimum _ 11,2 C 11,9 C 11,7 C 11,2 C 15,4 C 20 % 29 % 1007,8 hPa - 2,8 C 11,2 C
_ Max-Zeit 19:24 15:59 18:54 15:59 21:24 02:14 02:09 23:04 05:59 21:39 15:59
Maximum _ 28,2 C 25,5 C 26,0 C 25,5 C 18,0 C 43 % 66 % 1015,1 hPa 0,3 l/m 8,2 C 25,5 C
Durchschnitt _ 17,8 C 17,8 C 17,9 C 17,5 C 16,5 C 30 % 46 % 1011,7 hPa #1,0 l/m 5,4 C 17,5 C
Tischlerei Herzog